sensor_id;sensor_type;location;lat;lon;timestamp;temperature;humidity
8664;DHT22;4369;47.842;13.096;2022-07-30T00:00:57;18.10;99.90
8664;DHT22;4369;47.842;13.096;2022-07-30T00:03:24;18.10;99.90
8664;DHT22;4369;47.842;13.096;2022-07-30T00:05:54;18.00;99.90
8664;DHT22;4369;47.842;13.096;2022-07-30T00:08:21;18.00;99.90
8664;DHT22;4369;47.842;13.096;2022-07-30T00:10:48;18.00;99.90
8664;DHT22;4369;47.842;13.096;2022-07-30T00:13:15;18.00;99.90
8664;DHT22;4369;47.842;13.096;2022-07-30T00:15:42;18.00;99.90
8664;DHT22;4369;47.842;13.096;2022-07-30T00:18:08;18.00;99.90
8664;DHT22;4369;47.842;13.096;2022-07-30T00:20:35;17.90;99.90
8664;DHT22;4369;47.842;13.096;2022-07-30T00:23:06;17.80;99.90
8664;DHT22;4369;47.842;13.096;2022-07-30T00:25:33;17.80;99.90
8664;DHT22;4369;47.842;13.096;2022-07-30T00:27:59;17.70;99.90
8664;DHT22;4369;47.842;13.096;2022-07-30T00:30:26;17.60;99.90
8664;DHT22;4369;47.842;13.096;2022-07-30T00:32:53;17.60;99.90
8664;DHT22;4369;47.842;13.096;2022-07-30T00:35:20;17.60;99.90
8664;DHT22;4369;47.842;13.096;2022-07-30T00:37:47;17.50;99.90
8664;DHT22;4369;47.842;13.096;2022-07-30T00:40:15;17.50;99.90
8664;DHT22;4369;47.842;13.096;2022-07-30T00:42:43;17.50;99.90
8664;DHT22;4369;47.842;13.096;2022-07-30T00:45:12;17.40;99.90
8664;DHT22;4369;47.842;13.096;2022-07-30T00:47:39;17.30;99.90
8664;DHT22;4369;47.842;13.096;2022-07-30T00:50:08;17.40;99.90
8664;DHT22;4369;47.842;13.096;2022-07-30T00:52:36;17.40;99.90
8664;DHT22;4369;47.842;13.096;2022-07-30T00:55:05;17.40;99.90
8664;DHT22;4369;47.842;13.096;2022-07-30T00:57:33;17.40;99.90
8664;DHT22;4369;47.842;13.096;2022-07-30T01:00:00;17.40;99.90
8664;DHT22;4369;47.842;13.096;2022-07-30T01:02:27;17.30;99.90
8664;DHT22;4369;47.842;13.096;2022-07-30T01:04:54;17.30;99.90
8664;DHT22;4369;47.842;13.096;2022-07-30T01:07:21;17.30;99.90
8664;DHT22;4369;47.842;13.096;2022-07-30T01:09:48;17.30;99.90
8664;DHT22;4369;47.842;13.096;2022-07-30T01:12:18;17.20;99.90
8664;DHT22;4369;47.842;13.096;2022-07-30T01:14:46;17.10;99.90
8664;DHT22;4369;47.842;13.096;2022-07-30T01:17:14;17.10;99.90
8664;DHT22;4369;47.842;13.096;2022-07-30T01:19:42;17.20;99.90
8664;DHT22;4369;47.842;13.096;2022-07-30T01:22:32;17.20;99.90
8664;DHT22;4369;47.842;13.096;2022-07-30T01:25:05;17.10;99.90
8664;DHT22;4369;47.842;13.096;2022-07-30T01:27:40;17.10;99.90
8664;DHT22;4369;47.842;13.096;2022-07-30T01:30:09;17.10;99.90
8664;DHT22;4369;47.842;13.096;2022-07-30T01:32:40;17.00;99.90
8664;DHT22;4369;47.842;13.096;2022-07-30T01:35:09;17.00;99.90
8664;DHT22;4369;47.842;13.096;2022-07-30T01:37:37;16.90;99.90
8664;DHT22;4369;47.842;13.096;2022-07-30T01:40:06;16.80;99.90
8664;DHT22;4369;47.842;13.096;2022-07-30T01:42:38;16.70;99.90
8664;DHT22;4369;47.842;13.096;2022-07-30T01:45:06;16.70;99.90
8664;DHT22;4369;47.842;13.096;2022-07-30T01:47:35;16.70;99.90
8664;DHT22;4369;47.842;13.096;2022-07-30T01:50:04;16.60;99.90
8664;DHT22;4369;47.842;13.096;2022-07-30T01:52:34;16.60;99.90
8664;DHT22;4369;47.842;13.096;2022-07-30T01:55:02;16.70;99.90
8664;DHT22;4369;47.842;13.096;2022-07-30T01:57:30;16.70;99.90
8664;DHT22;4369;47.842;13.096;2022-07-30T02:00:01;16.80;99.90
8664;DHT22;4369;47.842;13.096;2022-07-30T02:02:30;16.70;99.90
8664;DHT22;4369;47.842;13.096;2022-07-30T02:04:57;16.60;99.90
8664;DHT22;4369;47.842;13.096;2022-07-30T02:07:31;16.60;99.90
8664;DHT22;4369;47.842;13.096;2022-07-30T02:10:04;16.60;99.90
8664;DHT22;4369;47.842;13.096;2022-07-30T02:12:32;16.60;99.90
8664;DHT22;4369;47.842;13.096;2022-07-30T02:15:14;16.70;99.90
8664;DHT22;4369;47.842;13.096;2022-07-30T02:17:48;16.70;99.90
8664;DHT22;4369;47.842;13.096;2022-07-30T02:20:16;16.70;99.90
8664;DHT22;4369;47.842;13.096;2022-07-30T02:22:45;16.70;99.90
8664;DHT22;4369;47.842;13.096;2022-07-30T02:25:16;16.70;99.90
8664;DHT22;4369;47.842;13.096;2022-07-30T02:27:48;16.70;99.90
8664;DHT22;4369;47.842;13.096;2022-07-30T02:30:17;16.70;99.90
8664;DHT22;4369;47.842;13.096;2022-07-30T02:32:46;16.70;99.90
8664;DHT22;4369;47.842;13.096;2022-07-30T02:35:17;16.70;99.90
8664;DHT22;4369;47.842;13.096;2022-07-30T02:37:47;16.80;99.90
8664;DHT22;4369;47.842;13.096;2022-07-30T02:40:16;16.80;99.90
8664;DHT22;4369;47.842;13.096;2022-07-30T02:42:45;16.80;99.90
8664;DHT22;4369;47.842;13.096;2022-07-30T02:45:14;16.90;99.90
8664;DHT22;4369;47.842;13.096;2022-07-30T02:47:43;16.80;99.90
8664;DHT22;4369;47.842;13.096;2022-07-30T02:50:12;16.80;99.90
8664;DHT22;4369;47.842;13.096;2022-07-30T02:52:40;16.80;99.90
8664;DHT22;4369;47.842;13.096;2022-07-30T02:55:09;16.70;99.90
8664;DHT22;4369;47.842;13.096;2022-07-30T02:57:37;16.60;99.90
8664;DHT22;4369;47.842;13.096;2022-07-30T03:00:06;16.60;99.90
8664;DHT22;4369;47.842;13.096;2022-07-30T03:02:34;16.60;99.90
8664;DHT22;4369;47.842;13.096;2022-07-30T03:05:04;16.50;99.90
8664;DHT22;4369;47.842;13.096;2022-07-30T03:07:33;16.50;99.90
8664;DHT22;4369;47.842;13.096;2022-07-30T03:10:02;16.60;99.90
8664;DHT22;4369;47.842;13.096;2022-07-30T03:12:30;16.50;99.90
8664;DHT22;4369;47.842;13.096;2022-07-30T03:14:58;16.50;99.90
8664;DHT22;4369;47.842;13.096;2022-07-30T03:17:27;16.50;99.90
8664;DHT22;4369;47.842;13.096;2022-07-30T03:19:55;16.50;99.90
8664;DHT22;4369;47.842;13.096;2022-07-30T03:22:25;16.50;99.90
8664;DHT22;4369;47.842;13.096;2022-07-30T03:24:54;16.40;99.90
8664;DHT22;4369;47.842;13.096;2022-07-30T03:27:22;16.50;99.90
8664;DHT22;4369;47.842;13.096;2022-07-30T03:29:51;16.50;99.90
8664;DHT22;4369;47.842;13.096;2022-07-30T03:32:20;16.50;99.90
8664;DHT22;4369;47.842;13.096;2022-07-30T03:34:47;16.50;99.90
8664;DHT22;4369;47.842;13.096;2022-07-30T03:37:15;16.50;99.90
8664;DHT22;4369;47.842;13.096;2022-07-30T03:39:44;16.50;99.90
8664;DHT22;4369;47.842;13.096;2022-07-30T03:42:12;16.50;99.90
8664;DHT22;4369;47.842;13.096;2022-07-30T03:44:40;16.50;99.90
8664;DHT22;4369;47.842;13.096;2022-07-30T03:47:11;16.50;99.90
8664;DHT22;4369;47.842;13.096;2022-07-30T03:49:38;16.50;99.90
8664;DHT22;4369;47.842;13.096;2022-07-30T03:52:06;16.40;99.90
8664;DHT22;4369;47.842;13.096;2022-07-30T03:54:33;16.50;99.90
8664;DHT22;4369;47.842;13.096;2022-07-30T03:57:03;16.60;99.90
8664;DHT22;4369;47.842;13.096;2022-07-30T03:59:30;16.50;99.90
8664;DHT22;4369;47.842;13.096;2022-07-30T04:01:59;16.60;99.90
8664;DHT22;4369;47.842;13.096;2022-07-30T04:04:27;16.50;99.90
8664;DHT22;4369;47.842;13.096;2022-07-30T04:06:54;16.50;99.90
8664;DHT22;4369;47.842;13.096;2022-07-30T04:09:21;16.50;99.90
8664;DHT22;4369;47.842;13.096;2022-07-30T04:11:49;16.50;99.90
8664;DHT22;4369;47.842;13.096;2022-07-30T04:14:17;16.40;99.90
8664;DHT22;4369;47.842;13.096;2022-07-30T04:16:48;16.30;99.90
8664;DHT22;4369;47.842;13.096;2022-07-30T04:19:21;16.30;99.90
8664;DHT22;4369;47.842;13.096;2022-07-30T04:21:50;16.40;99.90
8664;DHT22;4369;47.842;13.096;2022-07-30T04:24:18;16.40;99.90
8664;DHT22;4369;47.842;13.096;2022-07-30T04:26:46;16.40;99.90
8664;DHT22;4369;47.842;13.096;2022-07-30T04:29:14;16.50;99.90
8664;DHT22;4369;47.842;13.096;2022-07-30T04:31:43;16.50;99.90
8664;DHT22;4369;47.842;13.096;2022-07-30T04:34:12;16.50;99.90
8664;DHT22;4369;47.842;13.096;2022-07-30T04:36:40;16.50;99.90
8664;DHT22;4369;47.842;13.096;2022-07-30T04:39:07;16.50;99.90
8664;DHT22;4369;47.842;13.096;2022-07-30T04:41:34;16.50;99.90
8664;DHT22;4369;47.842;13.096;2022-07-30T04:44:02;16.60;99.90
8664;DHT22;4369;47.842;13.096;2022-07-30T04:46:28;16.60;99.90
8664;DHT22;4369;47.842;13.096;2022-07-30T04:48:57;16.60;99.90
8664;DHT22;4369;47.842;13.096;2022-07-30T04:51:26;16.60;99.90
8664;DHT22;4369;47.842;13.096;2022-07-30T04:53:54;16.50;99.90
8664;DHT22;4369;47.842;13.096;2022-07-30T04:56:23;16.50;99.90
8664;DHT22;4369;47.842;13.096;2022-07-30T04:58:51;16.50;99.90
8664;DHT22;4369;47.842;13.096;2022-07-30T05:01:22;16.60;99.90
8664;DHT22;4369;47.842;13.096;2022-07-30T05:03:51;16.60;99.90
8664;DHT22;4369;47.842;13.096;2022-07-30T05:06:20;16.70;99.90
8664;DHT22;4369;47.842;13.096;2022-07-30T05:08:47;16.70;99.90
8664;DHT22;4369;47.842;13.096;2022-07-30T05:11:14;16.80;99.90
8664;DHT22;4369;47.842;13.096;2022-07-30T05:13:42;16.70;99.90
8664;DHT22;4369;47.842;13.096;2022-07-30T05:16:09;16.80;99.90
8664;DHT22;4369;47.842;13.096;2022-07-30T05:18:37;16.80;99.90
8664;DHT22;4369;47.842;13.096;2022-07-30T05:21:04;16.80;99.90
8664;DHT22;4369;47.842;13.096;2022-07-30T05:23:33;16.90;99.90
8664;DHT22;4369;47.842;13.096;2022-07-30T05:26:00;16.90;99.90
8664;DHT22;4369;47.842;13.096;2022-07-30T05:28:27;16.90;99.90
8664;DHT22;4369;47.842;13.096;2022-07-30T05:30:54;16.90;99.90
8664;DHT22;4369;47.842;13.096;2022-07-30T05:33:21;16.90;99.90
8664;DHT22;4369;47.842;13.096;2022-07-30T05:35:49;17.00;99.90
8664;DHT22;4369;47.842;13.096;2022-07-30T05:38:17;17.10;99.90
8664;DHT22;4369;47.842;13.096;2022-07-30T05:40:45;17.10;99.90
8664;DHT22;4369;47.842;13.096;2022-07-30T05:43:12;17.20;99.90
8664;DHT22;4369;47.842;13.096;2022-07-30T05:45:39;17.10;99.90
8664;DHT22;4369;47.842;13.096;2022-07-30T05:48:06;17.10;99.90
8664;DHT22;4369;47.842;13.096;2022-07-30T05:50:36;17.10;99.90
8664;DHT22;4369;47.842;13.096;2022-07-30T05:53:03;17.10;99.90
8664;DHT22;4369;47.842;13.096;2022-07-30T05:55:30;17.10;99.90
8664;DHT22;4369;47.842;13.096;2022-07-30T05:57:58;17.10;99.90
8664;DHT22;4369;47.842;13.096;2022-07-30T06:00:25;17.10;99.90
8664;DHT22;4369;47.842;13.096;2022-07-30T06:02:52;17.20;99.90
8664;DHT22;4369;47.842;13.096;2022-07-30T06:05:19;17.20;99.90
8664;DHT22;4369;47.842;13.096;2022-07-30T06:07:46;17.20;99.90
8664;DHT22;4369;47.842;13.096;2022-07-30T06:10:13;17.10;99.90
8664;DHT22;4369;47.842;13.096;2022-07-30T06:12:40;17.10;99.90
8664;DHT22;4369;47.842;13.096;2022-07-30T06:15:09;17.10;99.90
8664;DHT22;4369;47.842;13.096;2022-07-30T06:17:42;17.10;99.90
8664;DHT22;4369;47.842;13.096;2022-07-30T06:20:10;17.20;99.90
8664;DHT22;4369;47.842;13.096;2022-07-30T06:22:37;17.20;99.90
8664;DHT22;4369;47.842;13.096;2022-07-30T06:25:05;17.20;99.90
8664;DHT22;4369;47.842;13.096;2022-07-30T06:27:33;17.20;99.90
8664;DHT22;4369;47.842;13.096;2022-07-30T06:30:02;17.20;99.90
8664;DHT22;4369;47.842;13.096;2022-07-30T06:32:31;17.30;99.90
8664;DHT22;4369;47.842;13.096;2022-07-30T06:34:58;17.40;99.90
8664;DHT22;4369;47.842;13.096;2022-07-30T06:37:25;17.40;99.90
8664;DHT22;4369;47.842;13.096;2022-07-30T06:39:52;17.40;99.90
8664;DHT22;4369;47.842;13.096;2022-07-30T06:42:19;17.60;99.90
8664;DHT22;4369;47.842;13.096;2022-07-30T06:44:45;17.60;99.90
8664;DHT22;4369;47.842;13.096;2022-07-30T06:47:12;17.80;99.90
8664;DHT22;4369;47.842;13.096;2022-07-30T06:49:41;17.80;99.90
8664;DHT22;4369;47.842;13.096;2022-07-30T06:52:07;17.80;99.90
8664;DHT22;4369;47.842;13.096;2022-07-30T06:54:34;17.90;99.90
8664;DHT22;4369;47.842;13.096;2022-07-30T06:57:01;18.10;99.90
8664;DHT22;4369;47.842;13.096;2022-07-30T06:59:28;18.20;99.90
8664;DHT22;4369;47.842;13.096;2022-07-30T07:01:55;18.30;99.90
8664;DHT22;4369;47.842;13.096;2022-07-30T07:04:22;18.30;99.90
8664;DHT22;4369;47.842;13.096;2022-07-30T07:06:50;18.40;99.90
8664;DHT22;4369;47.842;13.096;2022-07-30T07:09:17;18.40;99.90
8664;DHT22;4369;47.842;13.096;2022-07-30T07:11:44;18.50;99.90
8664;DHT22;4369;47.842;13.096;2022-07-30T07:14:11;18.50;99.90
8664;DHT22;4369;47.842;13.096;2022-07-30T07:16:38;18.50;99.90
8664;DHT22;4369;47.842;13.096;2022-07-30T07:19:05;18.50;99.90
8664;DHT22;4369;47.842;13.096;2022-07-30T07:21:32;18.60;99.90
8664;DHT22;4369;47.842;13.096;2022-07-30T07:24:00;18.50;99.90
8664;DHT22;4369;47.842;13.096;2022-07-30T07:26:28;18.50;99.90
8664;DHT22;4369;47.842;13.096;2022-07-30T07:28:55;18.40;99.90
8664;DHT22;4369;47.842;13.096;2022-07-30T07:31:22;18.50;99.90
8664;DHT22;4369;47.842;13.096;2022-07-30T07:33:49;18.60;99.90
8664;DHT22;4369;47.842;13.096;2022-07-30T07:36:18;18.60;99.90
8664;DHT22;4369;47.842;13.096;2022-07-30T07:38:45;18.50;99.90
8664;DHT22;4369;47.842;13.096;2022-07-30T07:41:14;18.60;99.90
8664;DHT22;4369;47.842;13.096;2022-07-30T07:43:40;18.60;99.90
8664;DHT22;4369;47.842;13.096;2022-07-30T07:46:08;18.60;99.90
8664;DHT22;4369;47.842;13.096;2022-07-30T07:48:35;18.70;99.90
8664;DHT22;4369;47.842;13.096;2022-07-30T07:51:02;18.70;99.90
8664;DHT22;4369;47.842;13.096;2022-07-30T07:53:29;18.70;99.90
8664;DHT22;4369;47.842;13.096;2022-07-30T07:55:56;18.60;99.90
8664;DHT22;4369;47.842;13.096;2022-07-30T07:58:25;18.70;99.90
8664;DHT22;4369;47.842;13.096;2022-07-30T08:00:52;18.70;99.90
8664;DHT22;4369;47.842;13.096;2022-07-30T08:03:19;18.60;99.90
8664;DHT22;4369;47.842;13.096;2022-07-30T08:05:46;18.60;99.90
8664;DHT22;4369;47.842;13.096;2022-07-30T08:08:13;18.60;99.90
8664;DHT22;4369;47.842;13.096;2022-07-30T08:10:40;18.50;99.90
8664;DHT22;4369;47.842;13.096;2022-07-30T08:13:07;18.50;99.90
8664;DHT22;4369;47.842;13.096;2022-07-30T08:15:35;18.50;99.90
8664;DHT22;4369;47.842;13.096;2022-07-30T08:18:02;18.50;99.90
8664;DHT22;4369;47.842;13.096;2022-07-30T08:20:29;18.50;99.90
8664;DHT22;4369;47.842;13.096;2022-07-30T08:22:57;18.50;99.90
8664;DHT22;4369;47.842;13.096;2022-07-30T08:25:23;18.50;99.90
8664;DHT22;4369;47.842;13.096;2022-07-30T08:27:50;18.50;99.90
8664;DHT22;4369;47.842;13.096;2022-07-30T08:30:17;18.60;99.90
8664;DHT22;4369;47.842;13.096;2022-07-30T08:32:45;18.60;99.90
8664;DHT22;4369;47.842;13.096;2022-07-30T08:35:12;18.70;99.90
8664;DHT22;4369;47.842;13.096;2022-07-30T08:37:39;18.60;99.90
8664;DHT22;4369;47.842;13.096;2022-07-30T08:40:07;18.60;99.90
8664;DHT22;4369;47.842;13.096;2022-07-30T08:42:35;18.50;99.90
8664;DHT22;4369;47.842;13.096;2022-07-30T08:45:02;18.60;99.90
8664;DHT22;4369;47.842;13.096;2022-07-30T08:47:31;18.60;99.90
8664;DHT22;4369;47.842;13.096;2022-07-30T08:50:00;18.60;99.90
8664;DHT22;4369;47.842;13.096;2022-07-30T08:52:30;18.80;99.90
8664;DHT22;4369;47.842;13.096;2022-07-30T08:54:58;18.80;99.90
8664;DHT22;4369;47.842;13.096;2022-07-30T08:57:27;19.00;99.90
8664;DHT22;4369;47.842;13.096;2022-07-30T08:59:55;19.00;99.90
8664;DHT22;4369;47.842;13.096;2022-07-30T09:02:22;19.10;99.90
8664;DHT22;4369;47.842;13.096;2022-07-30T09:04:49;19.20;99.90
8664;DHT22;4369;47.842;13.096;2022-07-30T09:07:17;19.10;99.90
8664;DHT22;4369;47.842;13.096;2022-07-30T09:09:44;19.20;99.90
8664;DHT22;4369;47.842;13.096;2022-07-30T09:12:34;19.40;99.90
8664;DHT22;4369;47.842;13.096;2022-07-30T09:15:12;19.40;99.90
8664;DHT22;4369;47.842;13.096;2022-07-30T09:17:51;19.50;99.90
8664;DHT22;4369;47.842;13.096;2022-07-30T09:20:19;19.40;99.90
8664;DHT22;4369;47.842;13.096;2022-07-30T09:22:49;19.40;99.90
8664;DHT22;4369;47.842;13.096;2022-07-30T09:25:32;19.30;99.90
8664;DHT22;4369;47.842;13.096;2022-07-30T09:27:59;19.50;99.90
8664;DHT22;4369;47.842;13.096;2022-07-30T09:30:28;19.50;99.90
8664;DHT22;4369;47.842;13.096;2022-07-30T09:33:08;19.70;99.90
8664;DHT22;4369;47.842;13.096;2022-07-30T09:35:35;19.60;99.90
8664;DHT22;4369;47.842;13.096;2022-07-30T09:38:03;19.70;99.90
8664;DHT22;4369;47.842;13.096;2022-07-30T09:40:31;19.90;99.90
8664;DHT22;4369;47.842;13.096;2022-07-30T09:43:04;20.00;99.90
8664;DHT22;4369;47.842;13.096;2022-07-30T09:45:31;20.10;99.90
8664;DHT22;4369;47.842;13.096;2022-07-30T09:47:59;20.30;99.90
8664;DHT22;4369;47.842;13.096;2022-07-30T09:50:27;20.10;99.90
8664;DHT22;4369;47.842;13.096;2022-07-30T09:52:54;20.00;99.90
8664;DHT22;4369;47.842;13.096;2022-07-30T09:55:33;20.10;99.90
8664;DHT22;4369;47.842;13.096;2022-07-30T09:58:02;20.20;99.90
8664;DHT22;4369;47.842;13.096;2022-07-30T10:00:32;20.20;99.90
8664;DHT22;4369;47.842;13.096;2022-07-30T10:02:59;20.30;99.90
8664;DHT22;4369;47.842;13.096;2022-07-30T10:05:27;20.30;99.90
8664;DHT22;4369;47.842;13.096;2022-07-30T10:07:56;20.40;99.90
8664;DHT22;4369;47.842;13.096;2022-07-30T10:10:25;20.40;99.90
8664;DHT22;4369;47.842;13.096;2022-07-30T10:12:57;20.40;99.90
8664;DHT22;4369;47.842;13.096;2022-07-30T10:15:27;20.30;99.90
8664;DHT22;4369;47.842;13.096;2022-07-30T10:17:55;20.50;99.90
8664;DHT22;4369;47.842;13.096;2022-07-30T10:20:23;20.60;99.90
8664;DHT22;4369;47.842;13.096;2022-07-30T10:22:50;20.60;99.90
8664;DHT22;4369;47.842;13.096;2022-07-30T10:25:18;20.70;99.90
8664;DHT22;4369;47.842;13.096;2022-07-30T10:27:46;20.90;99.90
8664;DHT22;4369;47.842;13.096;2022-07-30T10:30:15;21.10;99.90
8664;DHT22;4369;47.842;13.096;2022-07-30T10:32:42;21.30;99.90
8664;DHT22;4369;47.842;13.096;2022-07-30T10:35:11;21.60;99.90
8664;DHT22;4369;47.842;13.096;2022-07-30T10:37:40;21.60;99.90
8664;DHT22;4369;47.842;13.096;2022-07-30T10:40:13;21.60;99.90
8664;DHT22;4369;47.842;13.096;2022-07-30T10:43:06;21.90;99.90
8664;DHT22;4369;47.842;13.096;2022-07-30T10:45:46;22.10;99.90
8664;DHT22;4369;47.842;13.096;2022-07-30T10:48:16;21.80;99.90
8664;DHT22;4369;47.842;13.096;2022-07-30T10:50:49;21.70;99.90
8664;DHT22;4369;47.842;13.096;2022-07-30T10:53:36;22.00;99.90
8664;DHT22;4369;47.842;13.096;2022-07-30T10:56:14;22.10;99.90
8664;DHT22;4369;47.842;13.096;2022-07-30T10:58:58;22.30;99.90
8664;DHT22;4369;47.842;13.096;2022-07-30T11:04:41;22.80;99.90
8664;DHT22;4369;47.842;13.096;2022-07-30T11:07:29;22.80;99.90
8664;DHT22;4369;47.842;13.096;2022-07-30T11:09:58;22.60;99.90
8664;DHT22;4369;47.842;13.096;2022-07-30T11:12:51;22.80;99.90
8664;DHT22;4369;47.842;13.096;2022-07-30T11:15:18;22.90;99.90
8664;DHT22;4369;47.842;13.096;2022-07-30T11:18:05;23.10;99.90
8664;DHT22;4369;47.842;13.096;2022-07-30T11:20:34;23.30;99.90
8664;DHT22;4369;47.842;13.096;2022-07-30T11:25:54;23.80;99.90
8664;DHT22;4369;47.842;13.096;2022-07-30T11:28:33;24.10;99.90
8664;DHT22;4369;47.842;13.096;2022-07-30T11:31:01;24.30;99.90
8664;DHT22;4369;47.842;13.096;2022-07-30T11:33:29;24.20;99.90
8664;DHT22;4369;47.842;13.096;2022-07-30T11:36:14;24.00;99.90
8664;DHT22;4369;47.842;13.096;2022-07-30T11:38:55;24.00;99.90
8664;DHT22;4369;47.842;13.096;2022-07-30T11:41:22;24.20;99.90
8664;DHT22;4369;47.842;13.096;2022-07-30T11:44:23;24.40;99.90
8664;DHT22;4369;47.842;13.096;2022-07-30T11:46:51;24.50;99.90
8664;DHT22;4369;47.842;13.096;2022-07-30T11:49:19;24.20;99.90
8664;DHT22;4369;47.842;13.096;2022-07-30T11:51:47;24.50;99.90
8664;DHT22;4369;47.842;13.096;2022-07-30T11:54:14;24.60;99.90
8664;DHT22;4369;47.842;13.096;2022-07-30T11:56:48;25.00;99.90
8664;DHT22;4369;47.842;13.096;2022-07-30T11:59:16;25.50;99.90
8664;DHT22;4369;47.842;13.096;2022-07-30T12:01:43;25.60;99.90
8664;DHT22;4369;47.842;13.096;2022-07-30T12:04:14;24.90;99.90
8664;DHT22;4369;47.842;13.096;2022-07-30T12:06:46;24.60;99.90
8664;DHT22;4369;47.842;13.096;2022-07-30T12:09:21;24.30;99.90
8664;DHT22;4369;47.842;13.096;2022-07-30T12:11:48;24.10;99.90
8664;DHT22;4369;47.842;13.096;2022-07-30T12:14:15;23.90;99.90
8664;DHT22;4369;47.842;13.096;2022-07-30T12:16:48;23.90;99.90
8664;DHT22;4369;47.842;13.096;2022-07-30T12:19:16;23.80;99.90
8664;DHT22;4369;47.842;13.096;2022-07-30T12:21:44;23.80;99.90
8664;DHT22;4369;47.842;13.096;2022-07-30T12:24:11;24.00;99.90
8664;DHT22;4369;47.842;13.096;2022-07-30T12:26:39;24.10;99.90
8664;DHT22;4369;47.842;13.096;2022-07-30T12:29:08;24.20;99.90
8664;DHT22;4369;47.842;13.096;2022-07-30T12:31:37;24.50;99.90
8664;DHT22;4369;47.842;13.096;2022-07-30T12:34:18;24.50;99.90
8664;DHT22;4369;47.842;13.096;2022-07-30T12:36:46;24.30;99.90
8664;DHT22;4369;47.842;13.096;2022-07-30T12:39:18;23.70;99.90
8664;DHT22;4369;47.842;13.096;2022-07-30T12:41:48;23.20;99.90
8664;DHT22;4369;47.842;13.096;2022-07-30T12:44:35;22.70;99.90
8664;DHT22;4369;47.842;13.096;2022-07-30T12:47:04;22.60;99.90
8664;DHT22;4369;47.842;13.096;2022-07-30T12:49:31;22.80;99.90
8664;DHT22;4369;47.842;13.096;2022-07-30T12:52:00;22.90;99.90
8664;DHT22;4369;47.842;13.096;2022-07-30T12:54:27;23.00;99.90
8664;DHT22;4369;47.842;13.096;2022-07-30T12:56:58;23.20;99.90
8664;DHT22;4369;47.842;13.096;2022-07-30T12:59:26;23.50;99.90
8664;DHT22;4369;47.842;13.096;2022-07-30T13:01:53;23.90;99.90
8664;DHT22;4369;47.842;13.096;2022-07-30T13:04:22;24.40;99.90
8664;DHT22;4369;47.842;13.096;2022-07-30T13:07:10;24.90;99.90
8664;DHT22;4369;47.842;13.096;2022-07-30T13:09:38;25.20;99.90
8664;DHT22;4369;47.842;13.096;2022-07-30T13:12:06;25.50;99.90
8664;DHT22;4369;47.842;13.096;2022-07-30T13:14:34;25.70;99.90
8664;DHT22;4369;47.842;13.096;2022-07-30T13:17:01;25.70;99.90
8664;DHT22;4369;47.842;13.096;2022-07-30T13:19:28;25.70;99.60
8664;DHT22;4369;47.842;13.096;2022-07-30T13:21:55;25.20;96.60
8664;DHT22;4369;47.842;13.096;2022-07-30T13:24:24;25.20;99.60
8664;DHT22;4369;47.842;13.096;2022-07-30T13:26:52;25.20;97.90
8664;DHT22;4369;47.842;13.096;2022-07-30T13:29:19;25.20;97.50
8664;DHT22;4369;47.842;13.096;2022-07-30T13:31:46;25.40;98.60
8664;DHT22;4369;47.842;13.096;2022-07-30T13:34:13;26.10;98.70
8664;DHT22;4369;47.842;13.096;2022-07-30T13:36:39;26.40;94.00
8664;DHT22;4369;47.842;13.096;2022-07-30T13:39:07;26.00;92.40
8664;DHT22;4369;47.842;13.096;2022-07-30T13:41:37;25.80;92.10
8664;DHT22;4369;47.842;13.096;2022-07-30T13:44:06;25.70;91.10
8664;DHT22;4369;47.842;13.096;2022-07-30T13:46:34;25.40;89.60
8664;DHT22;4369;47.842;13.096;2022-07-30T13:49:03;25.20;90.10
8664;DHT22;4369;47.842;13.096;2022-07-30T13:51:31;25.50;91.40
8664;DHT22;4369;47.842;13.096;2022-07-30T13:53:58;26.80;91.00
8664;DHT22;4369;47.842;13.096;2022-07-30T13:56:24;28.20;82.20
8664;DHT22;4369;47.842;13.096;2022-07-30T13:58:53;29.30;80.00
8664;DHT22;4369;47.842;13.096;2022-07-30T14:01:20;29.60;76.50
8664;DHT22;4369;47.842;13.096;2022-07-30T14:03:46;29.20;74.00
8664;DHT22;4369;47.842;13.096;2022-07-30T14:06:14;27.70;73.30
8664;DHT22;4369;47.842;13.096;2022-07-30T14:08:43;26.60;76.30
8664;DHT22;4369;47.842;13.096;2022-07-30T14:11:10;25.60;79.10
8664;DHT22;4369;47.842;13.096;2022-07-30T14:13:37;24.80;89.30
8664;DHT22;4369;47.842;13.096;2022-07-30T14:16:06;23.90;96.20
8664;DHT22;4369;47.842;13.096;2022-07-30T14:18:33;23.10;99.90
8664;DHT22;4369;47.842;13.096;2022-07-30T14:21:00;23.00;99.90
8664;DHT22;4369;47.842;13.096;2022-07-30T14:23:31;23.00;99.90
8664;DHT22;4369;47.842;13.096;2022-07-30T14:25:58;23.20;99.90
8664;DHT22;4369;47.842;13.096;2022-07-30T14:28:25;23.90;99.90
8664;DHT22;4369;47.842;13.096;2022-07-30T14:30:52;26.00;99.90
8664;DHT22;4369;47.842;13.096;2022-07-30T14:33:20;28.40;92.20
8664;DHT22;4369;47.842;13.096;2022-07-30T14:35:47;30.50;84.40
8664;DHT22;4369;47.842;13.096;2022-07-30T14:38:14;31.20;72.90
8664;DHT22;4369;47.842;13.096;2022-07-30T14:40:41;32.10;67.50
8664;DHT22;4369;47.842;13.096;2022-07-30T14:43:08;33.70;70.40
8664;DHT22;4369;47.842;13.096;2022-07-30T14:45:35;35.00;61.70
8664;DHT22;4369;47.842;13.096;2022-07-30T14:48:02;35.50;56.70
8664;DHT22;4369;47.842;13.096;2022-07-30T14:50:30;35.10;54.30
8664;DHT22;4369;47.842;13.096;2022-07-30T14:52:57;33.70;53.90
8664;DHT22;4369;47.842;13.096;2022-07-30T14:55:24;33.20;55.70
8664;DHT22;4369;47.842;13.096;2022-07-30T14:57:51;32.20;57.90
8664;DHT22;4369;47.842;13.096;2022-07-30T15:00:18;31.10;58.30
8664;DHT22;4369;47.842;13.096;2022-07-30T15:02:45;30.00;60.80
8664;DHT22;4369;47.842;13.096;2022-07-30T15:05:12;29.00;63.00
8664;DHT22;4369;47.842;13.096;2022-07-30T15:07:40;28.30;71.80
8664;DHT22;4369;47.842;13.096;2022-07-30T15:10:08;28.10;73.80
8664;DHT22;4369;47.842;13.096;2022-07-30T15:12:35;28.70;72.00
8664;DHT22;4369;47.842;13.096;2022-07-30T15:15:03;28.70;77.80
8664;DHT22;4369;47.842;13.096;2022-07-30T15:17:30;28.60;80.00
8664;DHT22;4369;47.842;13.096;2022-07-30T15:19:57;28.10;84.90
8664;DHT22;4369;47.842;13.096;2022-07-30T15:22:25;27.40;91.50
8664;DHT22;4369;47.842;13.096;2022-07-30T15:24:54;26.60;99.90
8664;DHT22;4369;47.842;13.096;2022-07-30T15:27:21;25.20;99.10
8664;DHT22;4369;47.842;13.096;2022-07-30T15:29:48;24.80;99.90
8664;DHT22;4369;47.842;13.096;2022-07-30T15:32:15;24.30;99.90
8664;DHT22;4369;47.842;13.096;2022-07-30T15:34:42;23.90;99.90
8664;DHT22;4369;47.842;13.096;2022-07-30T15:37:09;23.30;99.90
8664;DHT22;4369;47.842;13.096;2022-07-30T15:39:36;23.10;99.90
8664;DHT22;4369;47.842;13.096;2022-07-30T15:42:04;23.50;99.90
8664;DHT22;4369;47.842;13.096;2022-07-30T15:44:31;24.30;99.90
8664;DHT22;4369;47.842;13.096;2022-07-30T15:46:59;24.70;99.90
8664;DHT22;4369;47.842;13.096;2022-07-30T15:49:27;24.80;99.90
8664;DHT22;4369;47.842;13.096;2022-07-30T15:51:54;25.20;99.90
8664;DHT22;4369;47.842;13.096;2022-07-30T15:54:21;25.60;99.90
8664;DHT22;4369;47.842;13.096;2022-07-30T15:56:48;25.50;99.90
8664;DHT22;4369;47.842;13.096;2022-07-30T15:59:16;25.70;99.90
8664;DHT22;4369;47.842;13.096;2022-07-30T16:01:43;25.80;99.90